sensor_id;sensor_type;location;lat;lon;timestamp;P1;durP1;ratioP1;P2;durP2;ratioP2
17175;SDS011;8703;48.996;9.594;2022-11-15T00:00:09;6.73;;;3.43;;
17175;SDS011;8703;48.996;9.594;2022-11-15T00:02:37;5.67;;;3.00;;
17175;SDS011;8703;48.996;9.594;2022-11-15T00:05:05;3.67;;;2.83;;
17175;SDS011;8703;48.996;9.594;2022-11-15T00:07:32;6.43;;;3.07;;
17175;SDS011;8703;48.996;9.594;2022-11-15T00:10:00;4.67;;;3.00;;
17175;SDS011;8703;48.996;9.594;2022-11-15T00:12:27;3.83;;;2.73;;
17175;SDS011;8703;48.996;9.594;2022-11-15T00:14:56;6.57;;;3.40;;
17175;SDS011;8703;48.996;9.594;2022-11-15T00:17:23;3.70;;;2.80;;
17175;SDS011;8703;48.996;9.594;2022-11-15T00:19:50;3.83;;;2.70;;
17175;SDS011;8703;48.996;9.594;2022-11-15T00:22:18;3.87;;;2.77;;
17175;SDS011;8703;48.996;9.594;2022-11-15T00:24:45;4.30;;;2.90;;
17175;SDS011;8703;48.996;9.594;2022-11-15T00:27:13;5.80;;;2.90;;
17175;SDS011;8703;48.996;9.594;2022-11-15T00:29:40;4.43;;;3.00;;
17175;SDS011;8703;48.996;9.594;2022-11-15T00:32:10;6.63;;;2.90;;
17175;SDS011;8703;48.996;9.594;2022-11-15T00:34:37;5.00;;;2.97;;
17175;SDS011;8703;48.996;9.594;2022-11-15T00:37:05;4.50;;;2.70;;
17175;SDS011;8703;48.996;9.594;2022-11-15T00:39:33;4.03;;;2.83;;
17175;SDS011;8703;48.996;9.594;2022-11-15T00:42:00;4.20;;;2.70;;
17175;SDS011;8703;48.996;9.594;2022-11-15T00:44:27;5.83;;;3.00;;
17175;SDS011;8703;48.996;9.594;2022-11-15T00:46:55;4.33;;;2.60;;
17175;SDS011;8703;48.996;9.594;2022-11-15T00:49:24;3.67;;;2.80;;
17175;SDS011;8703;48.996;9.594;2022-11-15T00:51:51;3.83;;;2.77;;
17175;SDS011;8703;48.996;9.594;2022-11-15T00:54:18;4.37;;;2.60;;
17175;SDS011;8703;48.996;9.594;2022-11-15T00:56:46;5.27;;;2.67;;
17175;SDS011;8703;48.996;9.594;2022-11-15T00:59:13;6.47;;;2.90;;
17175;SDS011;8703;48.996;9.594;2022-11-15T01:01:40;7.10;;;2.93;;
17175;SDS011;8703;48.996;9.594;2022-11-15T01:04:08;6.03;;;2.80;;
17175;SDS011;8703;48.996;9.594;2022-11-15T01:06:37;6.47;;;2.70;;
17175;SDS011;8703;48.996;9.594;2022-11-15T01:09:04;3.73;;;2.77;;
17175;SDS011;8703;48.996;9.594;2022-11-15T01:11:31;4.87;;;2.80;;
17175;SDS011;8703;48.996;9.594;2022-11-15T01:13:59;4.37;;;2.90;;
17175;SDS011;8703;48.996;9.594;2022-11-15T01:16:26;4.33;;;3.17;;
17175;SDS011;8703;48.996;9.594;2022-11-15T01:18:54;3.57;;;2.80;;
17175;SDS011;8703;48.996;9.594;2022-11-15T01:21:21;8.27;;;2.93;;
17175;SDS011;8703;48.996;9.594;2022-11-15T01:23:50;3.53;;;3.03;;
17175;SDS011;8703;48.996;9.594;2022-11-15T01:26:20;3.27;;;2.70;;
17175;SDS011;8703;48.996;9.594;2022-11-15T01:28:48;3.87;;;2.90;;
17175;SDS011;8703;48.996;9.594;2022-11-15T01:31:17;6.60;;;3.33;;
17175;SDS011;8703;48.996;9.594;2022-11-15T01:33:45;5.27;;;3.27;;
17175;SDS011;8703;48.996;9.594;2022-11-15T01:36:14;5.73;;;3.47;;
17175;SDS011;8703;48.996;9.594;2022-11-15T01:38:42;5.10;;;2.63;;
17175;SDS011;8703;48.996;9.594;2022-11-15T01:41:15;5.67;;;3.00;;
17175;SDS011;8703;48.996;9.594;2022-11-15T01:43:43;4.47;;;2.80;;
17175;SDS011;8703;48.996;9.594;2022-11-15T01:46:23;3.23;;;2.70;;
17175;SDS011;8703;48.996;9.594;2022-11-15T01:48:53;4.77;;;3.00;;
17175;SDS011;8703;48.996;9.594;2022-11-15T01:51:23;4.67;;;2.83;;
17175;SDS011;8703;48.996;9.594;2022-11-15T01:53:54;4.07;;;2.80;;
17175;SDS011;8703;48.996;9.594;2022-11-15T01:56:25;3.57;;;3.07;;
17175;SDS011;8703;48.996;9.594;2022-11-15T01:58:54;5.00;;;3.20;;
17175;SDS011;8703;48.996;9.594;2022-11-15T02:01:23;6.23;;;3.23;;
17175;SDS011;8703;48.996;9.594;2022-11-15T02:03:52;8.83;;;4.13;;
17175;SDS011;8703;48.996;9.594;2022-11-15T02:06:22;6.37;;;2.90;;
17175;SDS011;8703;48.996;9.594;2022-11-15T02:08:50;4.73;;;3.10;;
17175;SDS011;8703;48.996;9.594;2022-11-15T02:11:18;3.67;;;2.87;;
17175;SDS011;8703;48.996;9.594;2022-11-15T02:13:46;7.03;;;3.47;;
17175;SDS011;8703;48.996;9.594;2022-11-15T02:16:15;4.67;;;2.70;;
17175;SDS011;8703;48.996;9.594;2022-11-15T02:18:51;4.40;;;3.30;;
17175;SDS011;8703;48.996;9.594;2022-11-15T02:21:22;3.40;;;2.40;;
17175;SDS011;8703;48.996;9.594;2022-11-15T02:24:03;5.07;;;2.30;;
17175;SDS011;8703;48.996;9.594;2022-11-15T02:26:59;3.33;;;2.40;;
17175;SDS011;8703;48.996;9.594;2022-11-15T02:29:44;7.07;;;2.03;;
17175;SDS011;8703;48.996;9.594;2022-11-15T02:32:40;5.27;;;2.20;;
17175;SDS011;8703;48.996;9.594;2022-11-15T02:35:12;5.00;;;1.93;;
17175;SDS011;8703;48.996;9.594;2022-11-15T02:37:44;2.50;;;1.90;;
17175;SDS011;8703;48.996;9.594;2022-11-15T02:40:16;2.97;;;1.67;;
17175;SDS011;8703;48.996;9.594;2022-11-15T02:42:49;3.30;;;1.77;;
17175;SDS011;8703;48.996;9.594;2022-11-15T02:45:37;2.50;;;1.90;;
17175;SDS011;8703;48.996;9.594;2022-11-15T02:48:09;2.73;;;1.90;;
17175;SDS011;8703;48.996;9.594;2022-11-15T02:50:38;2.80;;;1.80;;
17175;SDS011;8703;48.996;9.594;2022-11-15T02:53:05;3.40;;;1.90;;
17175;SDS011;8703;48.996;9.594;2022-11-15T02:55:34;3.13;;;1.70;;
17175;SDS011;8703;48.996;9.594;2022-11-15T02:58:07;2.10;;;1.40;;
17175;SDS011;8703;48.996;9.594;2022-11-15T03:00:46;3.67;;;1.77;;
17175;SDS011;8703;48.996;9.594;2022-11-15T03:06:09;2.17;;;1.70;;
17175;SDS011;8703;48.996;9.594;2022-11-15T03:08:44;2.67;;;1.83;;
17175;SDS011;8703;48.996;9.594;2022-11-15T03:11:19;2.60;;;1.80;;
17175;SDS011;8703;48.996;9.594;2022-11-15T03:13:49;3.17;;;1.70;;
17175;SDS011;8703;48.996;9.594;2022-11-15T03:16:23;4.17;;;2.33;;
17175;SDS011;8703;48.996;9.594;2022-11-15T03:18:57;4.27;;;1.70;;
17175;SDS011;8703;48.996;9.594;2022-11-15T03:21:28;2.17;;;1.70;;
17175;SDS011;8703;48.996;9.594;2022-11-15T03:23:56;3.23;;;1.93;;
17175;SDS011;8703;48.996;9.594;2022-11-15T03:26:26;5.00;;;1.80;;
17175;SDS011;8703;48.996;9.594;2022-11-15T03:28:56;3.60;;;2.00;;
17175;SDS011;8703;48.996;9.594;2022-11-15T03:31:26;5.47;;;2.00;;
17175;SDS011;8703;48.996;9.594;2022-11-15T03:34:18;4.43;;;2.67;;
17175;SDS011;8703;48.996;9.594;2022-11-15T03:36:49;2.50;;;2.27;;
17175;SDS011;8703;48.996;9.594;2022-11-15T03:39:18;3.83;;;2.67;;
17175;SDS011;8703;48.996;9.594;2022-11-15T03:41:47;4.00;;;2.53;;
17175;SDS011;8703;48.996;9.594;2022-11-15T03:44:20;3.67;;;2.50;;
17175;SDS011;8703;48.996;9.594;2022-11-15T03:46:54;4.40;;;2.20;;
17175;SDS011;8703;48.996;9.594;2022-11-15T03:49:29;4.00;;;2.30;;
17175;SDS011;8703;48.996;9.594;2022-11-15T03:51:59;3.17;;;2.10;;
17175;SDS011;8703;48.996;9.594;2022-11-15T03:54:27;3.63;;;2.07;;
17175;SDS011;8703;48.996;9.594;2022-11-15T03:56:54;4.03;;;1.90;;
17175;SDS011;8703;48.996;9.594;2022-11-15T03:59:22;2.80;;;1.70;;
17175;SDS011;8703;48.996;9.594;2022-11-15T04:01:49;2.97;;;1.87;;
17175;SDS011;8703;48.996;9.594;2022-11-15T04:04:17;2.77;;;1.73;;
17175;SDS011;8703;48.996;9.594;2022-11-15T04:06:45;3.33;;;2.17;;
17175;SDS011;8703;48.996;9.594;2022-11-15T04:09:13;3.03;;;2.13;;
17175;SDS011;8703;48.996;9.594;2022-11-15T04:11:40;4.50;;;2.00;;
17175;SDS011;8703;48.996;9.594;2022-11-15T04:14:08;2.93;;;1.80;;
17175;SDS011;8703;48.996;9.594;2022-11-15T04:16:35;3.87;;;1.93;;
17175;SDS011;8703;48.996;9.594;2022-11-15T04:19:02;3.33;;;1.73;;
17175;SDS011;8703;48.996;9.594;2022-11-15T04:21:48;2.40;;;1.97;;
17175;SDS011;8703;48.996;9.594;2022-11-15T04:24:34;4.90;;;2.47;;
17175;SDS011;8703;48.996;9.594;2022-11-15T04:27:01;3.77;;;2.00;;
17175;SDS011;8703;48.996;9.594;2022-11-15T04:29:29;3.27;;;1.97;;
17175;SDS011;8703;48.996;9.594;2022-11-15T04:32:02;4.63;;;1.80;;
17175;SDS011;8703;48.996;9.594;2022-11-15T04:34:31;3.50;;;1.80;;
17175;SDS011;8703;48.996;9.594;2022-11-15T04:37:00;3.03;;;1.50;;
17175;SDS011;8703;48.996;9.594;2022-11-15T04:39:41;2.17;;;1.80;;
17175;SDS011;8703;48.996;9.594;2022-11-15T04:42:09;4.97;;;1.70;;
17175;SDS011;8703;48.996;9.594;2022-11-15T04:44:37;3.37;;;1.67;;
17175;SDS011;8703;48.996;9.594;2022-11-15T04:47:04;4.50;;;2.10;;
17175;SDS011;8703;48.996;9.594;2022-11-15T04:49:32;5.13;;;2.20;;
17175;SDS011;8703;48.996;9.594;2022-11-15T04:52:00;2.20;;;1.60;;
17175;SDS011;8703;48.996;9.594;2022-11-15T04:54:28;2.10;;;1.70;;
17175;SDS011;8703;48.996;9.594;2022-11-15T04:56:55;1.93;;;1.73;;
17175;SDS011;8703;48.996;9.594;2022-11-15T04:59:23;3.53;;;2.27;;
17175;SDS011;8703;48.996;9.594;2022-11-15T05:01:50;4.03;;;2.00;;
17175;SDS011;8703;48.996;9.594;2022-11-15T05:04:17;4.10;;;2.40;;
17175;SDS011;8703;48.996;9.594;2022-11-15T05:06:44;4.07;;;2.50;;
17175;SDS011;8703;48.996;9.594;2022-11-15T05:09:13;2.63;;;2.30;;
17175;SDS011;8703;48.996;9.594;2022-11-15T05:11:41;3.80;;;2.00;;
17175;SDS011;8703;48.996;9.594;2022-11-15T05:14:08;3.77;;;2.27;;
17175;SDS011;8703;48.996;9.594;2022-11-15T05:16:36;2.67;;;2.17;;
17175;SDS011;8703;48.996;9.594;2022-11-15T05:19:04;3.27;;;2.17;;
17175;SDS011;8703;48.996;9.594;2022-11-15T05:21:32;2.20;;;1.70;;
17175;SDS011;8703;48.996;9.594;2022-11-15T05:24:00;4.67;;;2.57;;
17175;SDS011;8703;48.996;9.594;2022-11-15T05:26:28;2.40;;;1.80;;
17175;SDS011;8703;48.996;9.594;2022-11-15T05:28:57;3.30;;;2.00;;
17175;SDS011;8703;48.996;9.594;2022-11-15T05:31:25;4.30;;;2.27;;
17175;SDS011;8703;48.996;9.594;2022-11-15T05:33:53;3.67;;;2.23;;
17175;SDS011;8703;48.996;9.594;2022-11-15T05:36:23;3.23;;;2.00;;
17175;SDS011;8703;48.996;9.594;2022-11-15T05:38:53;2.83;;;1.90;;
17175;SDS011;8703;48.996;9.594;2022-11-15T05:41:22;18.60;;;13.60;;
17175;SDS011;8703;48.996;9.594;2022-11-15T05:43:53;10.07;;;7.93;;
17175;SDS011;8703;48.996;9.594;2022-11-15T05:46:20;8.03;;;4.90;;
17175;SDS011;8703;48.996;9.594;2022-11-15T05:48:48;5.43;;;3.07;;
17175;SDS011;8703;48.996;9.594;2022-11-15T05:51:17;5.23;;;4.00;;
17175;SDS011;8703;48.996;9.594;2022-11-15T05:53:46;3.73;;;2.90;;
17175;SDS011;8703;48.996;9.594;2022-11-15T05:56:14;3.07;;;2.70;;
17175;SDS011;8703;48.996;9.594;2022-11-15T05:58:42;4.80;;;2.70;;
17175;SDS011;8703;48.996;9.594;2022-11-15T06:01:11;3.47;;;2.20;;
17175;SDS011;8703;48.996;9.594;2022-11-15T06:03:38;5.20;;;2.40;;
17175;SDS011;8703;48.996;9.594;2022-11-15T06:06:06;2.73;;;1.90;;
17175;SDS011;8703;48.996;9.594;2022-11-15T06:08:33;4.77;;;2.10;;
17175;SDS011;8703;48.996;9.594;2022-11-15T06:11:04;5.00;;;2.00;;
17175;SDS011;8703;48.996;9.594;2022-11-15T06:13:32;2.80;;;2.43;;
17175;SDS011;8703;48.996;9.594;2022-11-15T06:15:59;3.20;;;2.47;;
17175;SDS011;8703;48.996;9.594;2022-11-15T06:18:31;2.67;;;1.80;;
17175;SDS011;8703;48.996;9.594;2022-11-15T06:20:59;5.20;;;2.10;;
17175;SDS011;8703;48.996;9.594;2022-11-15T06:23:27;3.90;;;2.70;;
17175;SDS011;8703;48.996;9.594;2022-11-15T06:25:58;3.47;;;2.30;;
17175;SDS011;8703;48.996;9.594;2022-11-15T06:28:27;2.60;;;1.90;;
17175;SDS011;8703;48.996;9.594;2022-11-15T06:30:55;5.73;;;2.67;;
17175;SDS011;8703;48.996;9.594;2022-11-15T06:33:23;6.10;;;3.80;;
17175;SDS011;8703;48.996;9.594;2022-11-15T06:35:51;4.57;;;2.20;;
17175;SDS011;8703;48.996;9.594;2022-11-15T06:38:19;6.43;;;3.53;;
17175;SDS011;8703;48.996;9.594;2022-11-15T06:40:46;5.70;;;3.37;;
17175;SDS011;8703;48.996;9.594;2022-11-15T06:43:13;5.03;;;2.90;;
17175;SDS011;8703;48.996;9.594;2022-11-15T06:45:41;6.70;;;4.57;;
17175;SDS011;8703;48.996;9.594;2022-11-15T06:48:08;8.43;;;3.93;;
17175;SDS011;8703;48.996;9.594;2022-11-15T06:50:35;6.83;;;3.23;;
17175;SDS011;8703;48.996;9.594;2022-11-15T06:53:04;8.80;;;3.50;;
17175;SDS011;8703;48.996;9.594;2022-11-15T06:55:32;4.37;;;2.67;;
17175;SDS011;8703;48.996;9.594;2022-11-15T06:57:59;5.03;;;2.40;;
17175;SDS011;8703;48.996;9.594;2022-11-15T07:00:26;4.07;;;2.40;;
17175;SDS011;8703;48.996;9.594;2022-11-15T07:02:54;4.20;;;2.47;;
17175;SDS011;8703;48.996;9.594;2022-11-15T07:05:22;3.67;;;2.50;;
17175;SDS011;8703;48.996;9.594;2022-11-15T07:07:52;3.50;;;2.40;;
17175;SDS011;8703;48.996;9.594;2022-11-15T07:10:22;3.43;;;2.20;;
17175;SDS011;8703;48.996;9.594;2022-11-15T07:12:50;4.43;;;2.60;;
17175;SDS011;8703;48.996;9.594;2022-11-15T07:15:18;6.23;;;2.83;;
17175;SDS011;8703;48.996;9.594;2022-11-15T07:17:47;5.37;;;2.70;;
17175;SDS011;8703;48.996;9.594;2022-11-15T07:20:14;7.33;;;3.10;;
17175;SDS011;8703;48.996;9.594;2022-11-15T07:22:42;16.87;;;7.93;;
17175;SDS011;8703;48.996;9.594;2022-11-15T07:25:11;330.27;;;107.60;;
17175;SDS011;8703;48.996;9.594;2022-11-15T07:27:39;154.50;;;52.23;;
17175;SDS011;8703;48.996;9.594;2022-11-15T07:30:07;226.33;;;70.27;;
17175;SDS011;8703;48.996;9.594;2022-11-15T07:32:35;147.13;;;51.47;;
17175;SDS011;8703;48.996;9.594;2022-11-15T07:35:04;81.93;;;31.03;;
17175;SDS011;8703;48.996;9.594;2022-11-15T07:37:32;44.37;;;19.10;;
17175;SDS011;8703;48.996;9.594;2022-11-15T07:39:59;33.33;;;15.27;;
17175;SDS011;8703;48.996;9.594;2022-11-15T07:42:26;20.27;;;9.23;;
17175;SDS011;8703;48.996;9.594;2022-11-15T07:45:12;21.97;;;9.67;;
17175;SDS011;8703;48.996;9.594;2022-11-15T07:47:40;14.53;;;5.97;;
17175;SDS011;8703;48.996;9.594;2022-11-15T07:50:10;6.10;;;3.77;;
17175;SDS011;8703;48.996;9.594;2022-11-15T07:52:38;4.60;;;3.40;;
17175;SDS011;8703;48.996;9.594;2022-11-15T07:55:06;5.30;;;3.23;;
17175;SDS011;8703;48.996;9.594;2022-11-15T07:57:33;3.97;;;2.90;;
17175;SDS011;8703;48.996;9.594;2022-11-15T08:00:01;7.17;;;4.00;;
17175;SDS011;8703;48.996;9.594;2022-11-15T08:02:30;4.20;;;3.70;;
17175;SDS011;8703;48.996;9.594;2022-11-15T08:04:58;7.50;;;4.10;;
17175;SDS011;8703;48.996;9.594;2022-11-15T08:07:27;7.13;;;4.70;;
17175;SDS011;8703;48.996;9.594;2022-11-15T08:09:56;6.80;;;3.80;;
17175;SDS011;8703;48.996;9.594;2022-11-15T08:12:23;6.97;;;4.50;;
17175;SDS011;8703;48.996;9.594;2022-11-15T08:14:51;6.30;;;4.80;;
17175;SDS011;8703;48.996;9.594;2022-11-15T08:17:18;5.50;;;3.43;;
17175;SDS011;8703;48.996;9.594;2022-11-15T08:19:47;4.23;;;2.73;;
17175;SDS011;8703;48.996;9.594;2022-11-15T08:22:14;5.30;;;2.37;;
17175;SDS011;8703;48.996;9.594;2022-11-15T08:24:42;4.33;;;2.50;;
17175;SDS011;8703;48.996;9.594;2022-11-15T08:27:09;3.03;;;2.33;;
17175;SDS011;8703;48.996;9.594;2022-11-15T08:29:41;3.17;;;2.10;;
17175;SDS011;8703;48.996;9.594;2022-11-15T08:32:08;4.53;;;2.23;;
17175;SDS011;8703;48.996;9.594;2022-11-15T08:34:36;4.37;;;3.13;;
17175;SDS011;8703;48.996;9.594;2022-11-15T08:37:05;3.10;;;2.60;;
17175;SDS011;8703;48.996;9.594;2022-11-15T08:39:32;6.33;;;5.23;;
17175;SDS011;8703;48.996;9.594;2022-11-15T08:42:00;9.13;;;6.60;;
17175;SDS011;8703;48.996;9.594;2022-11-15T08:44:27;8.83;;;7.40;;
17175;SDS011;8703;48.996;9.594;2022-11-15T08:46:54;8.53;;;6.00;;
17175;SDS011;8703;48.996;9.594;2022-11-15T08:49:22;6.43;;;4.27;;
17175;SDS011;8703;48.996;9.594;2022-11-15T08:51:49;5.57;;;4.53;;
17175;SDS011;8703;48.996;9.594;2022-11-15T08:54:18;6.83;;;4.40;;
17175;SDS011;8703;48.996;9.594;2022-11-15T08:56:45;6.83;;;4.80;;
17175;SDS011;8703;48.996;9.594;2022-11-15T08:59:13;7.93;;;4.37;;
17175;SDS011;8703;48.996;9.594;2022-11-15T09:01:40;10.07;;;4.67;;
17175;SDS011;8703;48.996;9.594;2022-11-15T09:04:07;6.53;;;5.10;;
17175;SDS011;8703;48.996;9.594;2022-11-15T09:06:35;6.03;;;4.43;;
17175;SDS011;8703;48.996;9.594;2022-11-15T09:09:02;8.70;;;5.37;;
17175;SDS011;8703;48.996;9.594;2022-11-15T09:11:31;13.17;;;6.27;;
17175;SDS011;8703;48.996;9.594;2022-11-15T09:13:59;6.60;;;4.90;;
17175;SDS011;8703;48.996;9.594;2022-11-15T09:16:26;7.23;;;4.60;;
17175;SDS011;8703;48.996;9.594;2022-11-15T09:18:54;6.37;;;4.50;;
17175;SDS011;8703;48.996;9.594;2022-11-15T09:21:21;6.43;;;4.20;;
17175;SDS011;8703;48.996;9.594;2022-11-15T09:23:49;6.83;;;4.83;;
17175;SDS011;8703;48.996;9.594;2022-11-15T09:26:21;6.77;;;4.87;;
17175;SDS011;8703;48.996;9.594;2022-11-15T09:28:55;7.67;;;4.60;;
17175;SDS011;8703;48.996;9.594;2022-11-15T09:31:22;6.90;;;4.67;;
17175;SDS011;8703;48.996;9.594;2022-11-15T09:33:50;7.20;;;5.00;;
17175;SDS011;8703;48.996;9.594;2022-11-15T09:36:18;7.57;;;5.00;;
17175;SDS011;8703;48.996;9.594;2022-11-15T09:38:46;7.60;;;5.20;;
17175;SDS011;8703;48.996;9.594;2022-11-15T09:41:29;10.27;;;6.77;;
17175;SDS011;8703;48.996;9.594;2022-11-15T09:44:13;7.83;;;5.50;;
17175;SDS011;8703;48.996;9.594;2022-11-15T09:46:48;6.83;;;4.60;;
17175;SDS011;8703;48.996;9.594;2022-11-15T09:49:20;6.83;;;5.17;;
17175;SDS011;8703;48.996;9.594;2022-11-15T09:51:48;7.47;;;4.03;;
17175;SDS011;8703;48.996;9.594;2022-11-15T09:54:21;4.93;;;3.20;;
17175;SDS011;8703;48.996;9.594;2022-11-15T09:56:53;5.40;;;4.20;;
17175;SDS011;8703;48.996;9.594;2022-11-15T09:59:31;5.73;;;4.23;;
17175;SDS011;8703;48.996;9.594;2022-11-15T10:02:09;6.57;;;3.60;;
17175;SDS011;8703;48.996;9.594;2022-11-15T10:04:43;5.53;;;3.60;;
17175;SDS011;8703;48.996;9.594;2022-11-15T10:07:13;6.30;;;3.73;;
17175;SDS011;8703;48.996;9.594;2022-11-15T10:09:44;4.30;;;3.20;;
17175;SDS011;8703;48.996;9.594;2022-11-15T10:12:15;5.30;;;3.03;;
17175;SDS011;8703;48.996;9.594;2022-11-15T10:14:44;4.13;;;2.80;;
17175;SDS011;8703;48.996;9.594;2022-11-15T10:17:15;6.93;;;3.10;;
17175;SDS011;8703;48.996;9.594;2022-11-15T10:19:55;5.83;;;3.20;;
17175;SDS011;8703;48.996;9.594;2022-11-15T10:22:28;5.57;;;3.20;;
17175;SDS011;8703;48.996;9.594;2022-11-15T10:25:06;4.17;;;3.23;;
17175;SDS011;8703;48.996;9.594;2022-11-15T10:27:47;3.90;;;2.90;;
17175;SDS011;8703;48.996;9.594;2022-11-15T10:30:22;4.93;;;2.97;;
17175;SDS011;8703;48.996;9.594;2022-11-15T10:32:56;4.77;;;3.27;;
17175;SDS011;8703;48.996;9.594;2022-11-15T10:35:24;4.80;;;2.93;;
17175;SDS011;8703;48.996;9.594;2022-11-15T10:37:58;3.90;;;2.90;;
17175;SDS011;8703;48.996;9.594;2022-11-15T10:40:32;5.20;;;3.20;;
17175;SDS011;8703;48.996;9.594;2022-11-15T10:43:12;6.33;;;2.70;;
17175;SDS011;8703;48.996;9.594;2022-11-15T10:45:42;3.60;;;2.83;;
17175;SDS011;8703;48.996;9.594;2022-11-15T10:48:20;4.17;;;2.70;;
17175;SDS011;8703;48.996;9.594;2022-11-15T10:50:51;3.83;;;2.90;;
17175;SDS011;8703;48.996;9.594;2022-11-15T10:53:24;4.73;;;3.07;;
17175;SDS011;8703;48.996;9.594;2022-11-15T10:55:56;3.23;;;2.67;;
17175;SDS011;8703;48.996;9.594;2022-11-15T10:58:31;5.07;;;3.10;;
17175;SDS011;8703;48.996;9.594;2022-11-15T11:01:13;4.07;;;3.20;;
17175;SDS011;8703;48.996;9.594;2022-11-15T11:03:42;4.47;;;2.80;;
17175;SDS011;8703;48.996;9.594;2022-11-15T11:06:11;4.67;;;2.80;;
17175;SDS011;8703;48.996;9.594;2022-11-15T11:08:39;4.60;;;2.90;;
17175;SDS011;8703;48.996;9.594;2022-11-15T11:11:19;3.10;;;2.50;;
17175;SDS011;8703;48.996;9.594;2022-11-15T11:13:47;3.80;;;2.77;;
17175;SDS011;8703;48.996;9.594;2022-11-15T11:16:33;4.33;;;3.30;;
17175;SDS011;8703;48.996;9.594;2022-11-15T11:19:23;5.30;;;2.90;;
17175;SDS011;8703;48.996;9.594;2022-11-15T11:22:06;3.67;;;2.97;;
17175;SDS011;8703;48.996;9.594;2022-11-15T11:24:44;6.57;;;3.60;;
17175;SDS011;8703;48.996;9.594;2022-11-15T11:27:18;5.60;;;3.27;;
17175;SDS011;8703;48.996;9.594;2022-11-15T11:29:57;4.13;;;3.00;;
17175;SDS011;8703;48.996;9.594;2022-11-15T11:35:25;5.17;;;3.57;;
17175;SDS011;8703;48.996;9.594;2022-11-15T11:37:59;5.70;;;3.50;;
17175;SDS011;8703;48.996;9.594;2022-11-15T11:40:37;8.43;;;3.60;;
17175;SDS011;8703;48.996;9.594;2022-11-15T11:43:12;7.13;;;3.97;;
17175;SDS011;8703;48.996;9.594;2022-11-15T11:45:54;7.17;;;4.20;;
17175;SDS011;8703;48.996;9.594;2022-11-15T11:48:39;8.97;;;4.23;;
17175;SDS011;8703;48.996;9.594;2022-11-15T11:51:11;7.60;;;3.67;;
17175;SDS011;8703;48.996;9.594;2022-11-15T11:53:45;6.50;;;3.78;;
17175;SDS011;8703;48.996;9.594;2022-11-15T11:56:18;6.30;;;3.90;;
17175;SDS011;8703;48.996;9.594;2022-11-15T11:58:49;7.60;;;3.90;;
17175;SDS011;8703;48.996;9.594;2022-11-15T12:01:20;7.60;;;4.23;;
17175;SDS011;8703;48.996;9.594;2022-11-15T12:03:52;7.38;;;4.40;;
17175;SDS011;8703;48.996;9.594;2022-11-15T12:06:26;6.85;;;4.90;;
17175;SDS011;8703;48.996;9.594;2022-11-15T12:08:58;7.32;;;4.93;;
17175;SDS011;8703;48.996;9.594;2022-11-15T12:11:29;10.57;;;5.53;;
17175;SDS011;8703;48.996;9.594;2022-11-15T12:14:03;10.13;;;5.50;;
17175;SDS011;8703;48.996;9.594;2022-11-15T12:16:32;9.68;;;4.82;;
17175;SDS011;8703;48.996;9.594;2022-11-15T12:19:02;7.05;;;4.18;;
17175;SDS011;8703;48.996;9.594;2022-11-15T12:21:33;6.80;;;3.85;;
17175;SDS011;8703;48.996;9.594;2022-11-15T12:24:04;6.43;;;3.83;;
17175;SDS011;8703;48.996;9.594;2022-11-15T12:26:35;4.47;;;3.10;;
17175;SDS011;8703;48.996;9.594;2022-11-15T12:29:08;3.85;;;2.40;;
17175;SDS011;8703;48.996;9.594;2022-11-15T12:31:39;3.15;;;2.22;;
17175;SDS011;8703;48.996;9.594;2022-11-15T12:34:29;4.22;;;3.00;;
17175;SDS011;8703;48.996;9.594;2022-11-15T12:37:01;4.32;;;2.60;;
17175;SDS011;8703;48.996;9.594;2022-11-15T12:42:40;4.47;;;2.92;;
17175;SDS011;8703;48.996;9.594;2022-11-15T12:45:23;4.60;;;2.88;;
17175;SDS011;8703;48.996;9.594;2022-11-15T12:47:53;5.15;;;3.15;;
17175;SDS011;8703;48.996;9.594;2022-11-15T12:53:27;5.05;;;2.58;;
17175;SDS011;8703;48.996;9.594;2022-11-15T12:58:49;4.35;;;2.53;;
17175;SDS011;8703;48.996;9.594;2022-11-15T13:04:23;2.97;;;2.50;;
17175;SDS011;8703;48.996;9.594;2022-11-15T13:06:54;3.15;;;2.42;;
17175;SDS011;8703;48.996;9.594;2022-11-15T13:20:57;5.88;;;1.73;;
17175;SDS011;8703;48.996;9.594;2022-11-15T13:23:26;2.85;;;1.98;;
17175;SDS011;8703;48.996;9.594;2022-11-15T13:26:06;2.00;;;1.75;;
17175;SDS011;8703;48.996;9.594;2022-11-15T13:28:37;2.85;;;2.00;;
17175;SDS011;8703;48.996;9.594;2022-11-15T13:31:21;2.75;;;1.90;;
17175;SDS011;8703;48.996;9.594;2022-11-15T13:33:52;2.78;;;2.33;;
17175;SDS011;8703;48.996;9.594;2022-11-15T13:36:22;11.68;;;7.82;;
17175;SDS011;8703;48.996;9.594;2022-11-15T13:38:56;4.78;;;3.58;;
17175;SDS011;8703;48.996;9.594;2022-11-15T13:41:26;5.82;;;4.10;;
17175;SDS011;8703;48.996;9.594;2022-11-15T13:43:55;3.55;;;2.20;;
17175;SDS011;8703;48.996;9.594;2022-11-15T13:46:24;2.40;;;2.00;;
17175;SDS011;8703;48.996;9.594;2022-11-15T13:48:53;3.08;;;2.35;;
17175;SDS011;8703;48.996;9.594;2022-11-15T13:51:24;3.35;;;1.88;;
17175;SDS011;8703;48.996;9.594;2022-11-15T13:54:08;13.05;;;9.45;;
17175;SDS011;8703;48.996;9.594;2022-11-15T13:56:44;2.78;;;1.77;;
17175;SDS011;8703;48.996;9.594;2022-11-15T13:59:14;2.40;;;2.20;;
17175;SDS011;8703;48.996;9.594;2022-11-15T14:01:52;1.90;;;1.70;;
17175;SDS011;8703;48.996;9.594;2022-11-15T14:04:22;3.95;;;1.50;;
17175;SDS011;8703;48.996;9.594;2022-11-15T14:06:51;3.95;;;1.60;;
17175;SDS011;8703;48.996;9.594;2022-11-15T14:09:35;4.00;;;1.60;;
17175;SDS011;8703;48.996;9.594;2022-11-15T14:14:50;2.05;;;1.52;;
17175;SDS011;8703;48.996;9.594;2022-11-15T14:17:19;2.58;;;1.60;;
17175;SDS011;8703;48.996;9.594;2022-11-15T14:19:48;12.27;;;7.97;;
17175;SDS011;8703;48.996;9.594;2022-11-15T14:22:18;11.63;;;6.95;;
17175;SDS011;8703;48.996;9.594;2022-11-15T14:25:04;6.82;;;3.28;;
17175;SDS011;8703;48.996;9.594;2022-11-15T14:27:43;2.13;;;1.58;;
17175;SDS011;8703;48.996;9.594;2022-11-15T14:30:14;3.40;;;1.50;;
17175;SDS011;8703;48.996;9.594;2022-11-15T14:32:43;3.30;;;1.58;;
17175;SDS011;8703;48.996;9.594;2022-11-15T14:35:14;3.67;;;1.70;;
17175;SDS011;8703;48.996;9.594;2022-11-15T14:37:43;3.13;;;1.73;;
17175;SDS011;8703;48.996;9.594;2022-11-15T14:40:13;3.38;;;2.65;;
17175;SDS011;8703;48.996;9.594;2022-11-15T14:42:42;3.17;;;1.50;;
17175;SDS011;8703;48.996;9.594;2022-11-15T14:45:11;2.72;;;1.77;;
17175;SDS011;8703;48.996;9.594;2022-11-15T14:47:40;5.22;;;3.05;;
17175;SDS011;8703;48.996;9.594;2022-11-15T14:50:10;10.63;;;6.47;;
17175;SDS011;8703;48.996;9.594;2022-11-15T14:52:39;2.72;;;1.70;;
17175;SDS011;8703;48.996;9.594;2022-11-15T14:55:13;3.00;;;1.60;;
17175;SDS011;8703;48.996;9.594;2022-11-15T14:57:44;4.68;;;1.73;;
17175;SDS011;8703;48.996;9.594;2022-11-15T15:00:12;3.35;;;1.55;;
17175;SDS011;8703;48.996;9.594;2022-11-15T15:02:40;6.25;;;3.00;;
17175;SDS011;8703;48.996;9.594;2022-11-15T15:05:15;6.75;;;2.22;;
17175;SDS011;8703;48.996;9.594;2022-11-15T15:07:44;2.97;;;1.92;;
17175;SDS011;8703;48.996;9.594;2022-11-15T15:10:13;2.40;;;1.58;;
17175;SDS011;8703;48.996;9.594;2022-11-15T15:12:42;1.95;;;1.33;;
17175;SDS011;8703;48.996;9.594;2022-11-15T15:15:12;2.70;;;1.55;;
17175;SDS011;8703;48.996;9.594;2022-11-15T15:17:45;7.63;;;5.35;;
17175;SDS011;8703;48.996;9.594;2022-11-15T15:20:13;10.45;;;6.93;;
17175;SDS011;8703;48.996;9.594;2022-11-15T15:22:41;17.83;;;11.35;;
17175;SDS011;8703;48.996;9.594;2022-11-15T15:25:17;32.10;;;22.90;;
17175;SDS011;8703;48.996;9.594;2022-11-15T15:27:48;24.77;;;19.77;;
17175;SDS011;8703;48.996;9.594;2022-11-15T15:30:16;7.57;;;5.60;;
17175;SDS011;8703;48.996;9.594;2022-11-15T15:32:44;8.93;;;6.50;;
17175;SDS011;8703;48.996;9.594;2022-11-15T15:35:12;8.37;;;4.73;;
17175;SDS011;8703;48.996;9.594;2022-11-15T15:37:40;4.77;;;2.57;;
17175;SDS011;8703;48.996;9.594;2022-11-15T15:40:10;4.63;;;2.20;;
17175;SDS011;8703;48.996;9.594;2022-11-15T15:42:41;19.17;;;9.77;;
17175;SDS011;8703;48.996;9.594;2022-11-15T15:45:09;24.30;;;14.10;;
17175;SDS011;8703;48.996;9.594;2022-11-15T15:47:37;17.83;;;11.10;;
17175;SDS011;8703;48.996;9.594;2022-11-15T15:50:11;9.83;;;4.87;;
17175;SDS011;8703;48.996;9.594;2022-11-15T15:52:50;4.30;;;2.17;;